Time;durP1;ratioP1;P1;durP2;ratioP2;P2;SDS_P1;SDS_P2;PMS_P1;PMS_P2;Temp;Humidity;BMP_temperature;BMP_pressure;BME280_temperature;BME280_humidity;BME280_pressure;Samples;Min_cycle;Max_cycle;Signal;HPM_P1;HPM_P2
2022/03/16 00:01:54;;;;;;;27.60;7.47;;;;;;;7.77;100.00;96045.66;5051865;28;20049;-74
2022/03/16 00:04:19;;;;;;;27.88;7.18;;;;;;;7.87;100.00;96054.69;5054902;28;20048;-75
2022/03/16 00:06:45;;;;;;;24.63;7.78;;;;;;;7.78;100.00;96052.47;5051629;28;20049;-75
2022/03/16 00:09:10;;;;;;;28.70;8.32;;;;;;;7.75;100.00;96058.19;5070307;28;20115;-75
2022/03/16 00:11:36;;;;;;;20.52;7.80;;;;;;;7.79;100.00;96054.06;5069892;28;20040;-75
2022/03/16 00:14:02;;;;;;;28.98;9.40;;;;;;;7.69;100.00;96056.53;5068305;28;20039;-75
2022/03/16 00:16:27;;;;;;;29.88;8.32;;;;;;;7.71;100.00;96066.75;5065312;28;20490;-75
2022/03/16 00:18:53;;;;;;;20.95;8.48;;;;;;;7.68;100.00;96068.03;5063760;28;20489;-75
2022/03/16 00:21:18;;;;;;;24.33;8.07;;;;;;;7.58;100.00;96063.41;5070964;28;20063;-75
2022/03/16 00:23:44;;;;;;;19.00;7.95;;;;;;;7.57;100.00;96067.09;5052470;28;20045;-75
2022/03/16 00:26:09;;;;;;;29.30;9.18;;;;;;;7.64;100.00;96069.53;5055229;28;20090;-75
2022/03/16 00:28:35;;;;;;;29.02;9.02;;;;;;;7.59;100.00;96070.25;5072885;28;20068;-75
2022/03/16 00:31:02;;;;;;;25.67;8.68;;;;;;;7.54;100.00;96077.22;5053313;28;20465;-75
2022/03/16 00:33:28;;;;;;;20.15;9.18;;;;;;;7.52;100.00;96081.91;5067221;28;20064;-75
2022/03/16 00:35:53;;;;;;;25.52;9.25;;;;;;;7.49;100.00;96077.16;5071945;28;20063;-75
2022/03/16 00:38:19;;;;;;;23.60;9.85;;;;;;;7.42;100.00;96085.91;5066478;28;20040;-75
2022/03/16 00:40:45;;;;;;;25.95;10.35;;;;;;;7.38;100.00;96082.19;5070948;28;20417;-75
2022/03/16 00:43:10;;;;;;;25.45;11.43;;;;;;;7.50;100.00;96086.56;5056165;28;20560;-75
2022/03/16 00:45:36;;;;;;;38.38;12.40;;;;;;;7.37;100.00;96088.47;5057255;28;20452;-75
2022/03/16 00:48:01;;;;;;;27.10;12.02;;;;;;;7.30;100.00;96087.81;5065198;28;20478;-75
2022/03/16 00:50:27;;;;;;;31.98;12.48;;;;;;;7.30;100.00;96085.19;5053333;28;20047;-75
2022/03/16 00:52:53;;;;;;;42.15;12.95;;;;;;;7.34;100.00;96094.19;5049554;28;20517;-75
2022/03/16 00:55:20;;;;;;;34.10;12.77;;;;;;;7.23;100.00;96087.16;5060288;28;20108;-75
2022/03/16 00:57:45;;;;;;;33.13;12.93;;;;;;;7.20;100.00;96077.16;5053458;28;20048;-76
2022/03/16 01:00:12;;;;;;;34.55;13.60;;;;;;;7.09;100.00;96082.16;5066779;28;20041;-75
2022/03/16 01:02:38;;;;;;;41.15;13.00;;;;;;;7.16;100.00;96081.25;5062407;28;20051;-75
2022/03/16 01:05:05;;;;;;;29.38;14.18;;;;;;;7.10;100.00;96072.53;5068195;28;20049;-75
2022/03/16 01:07:30;;;;;;;28.80;14.48;;;;;;;7.07;100.00;96073.78;5064790;28;20675;-74
2022/03/16 01:09:56;;;;;;;51.20;15.05;;;;;;;7.07;100.00;96071.16;5053296;28;20041;-74
2022/03/16 01:12:21;;;;;;;37.58;14.57;;;;;;;7.04;100.00;96079.47;5052951;28;20041;-74
2022/03/16 01:14:47;;;;;;;33.70;15.40;;;;;;;7.02;100.00;96075.50;5066051;28;20041;-74
2022/03/16 01:17:12;;;;;;;33.33;14.80;;;;;;;6.99;100.00;96071.50;5063226;28;20053;-75
2022/03/16 01:19:38;;;;;;;37.35;17.17;;;;;;;6.97;100.00;96073.59;5049648;28;20041;-74
2022/03/16 01:22:05;;;;;;;44.53;17.30;;;;;;;7.09;100.00;96078.78;5050577;28;20243;-74
2022/03/16 01:24:31;;;;;;;41.40;17.92;;;;;;;7.04;100.00;96079.47;5051438;28;20049;-74
2022/03/16 01:26:57;;;;;;;40.78;17.52;;;;;;;7.01;100.00;96074.72;5066512;28;20760;-74
2022/03/16 01:29:26;;;;;;;40.38;18.98;;;;;;;7.01;100.00;96073.91;5064616;28;20048;-75
2022/03/16 01:31:53;;;;;;;40.78;18.85;;;;;;;7.06;100.00;96066.94;5063524;28;20052;-75
2022/03/16 01:34:19;;;;;;;45.97;19.17;;;;;;;7.00;100.00;96073.13;5058481;28;20068;-75
2022/03/16 01:36:45;;;;;;;44.63;20.70;;;;;;;6.95;100.00;96070.38;5061702;28;20041;-75
2022/03/16 01:39:10;;;;;;;49.63;20.42;;;;;;;7.02;100.00;96071.03;5049570;28;20040;-75
2022/03/16 01:41:36;;;;;;;44.10;19.40;;;;;;;6.91;100.00;96071.88;5051630;28;20065;-75
2022/03/16 01:44:02;;;;;;;41.22;20.13;;;;;;;6.93;100.00;96068.00;5064826;28;20586;-75
2022/03/16 01:46:28;;;;;;;43.10;19.67;;;;;;;6.95;100.00;96070.38;5056384;28;20036;-75
2022/03/16 01:48:53;;;;;;;47.40;20.38;;;;;;;6.91;100.00;96064.03;5066337;28;20394;-75
2022/03/16 01:51:22;;;;;;;41.50;20.17;;;;;;;6.86;100.00;96071.78;5062213;28;20498;-75
2022/03/16 01:53:49;;;;;;;44.35;20.35;;;;;;;6.94;100.00;96066.19;5065017;28;20406;-75
2022/03/16 01:56:16;;;;;;;47.92;22.23;;;;;;;6.87;100.00;96068.16;5065516;28;20044;-75
2022/03/16 01:58:42;;;;;;;47.88;22.48;;;;;;;6.84;100.00;96064.16;5067183;28;20132;-75
2022/03/16 02:01:08;;;;;;;45.53;20.85;;;;;;;6.82;100.00;96070.66;5062945;28;20036;-75
2022/03/16 02:03:33;;;;;;;51.72;22.35;;;;;;;6.90;100.00;96070.31;5050176;28;20101;-75
2022/03/16 02:06:00;;;;;;;48.90;22.52;;;;;;;6.84;100.00;96065.97;5048903;28;20087;-75
2022/03/16 02:08:29;;;;;;;52.72;23.63;;;;;;;6.92;100.00;96070.84;5049203;28;20067;-75
2022/03/16 02:10:54;;;;;;;47.45;23.25;;;;;;;6.85;100.00;96064.97;5051417;28;20127;-75
2022/03/16 02:13:20;;;;;;;55.83;24.15;;;;;;;6.75;100.00;96066.34;5061342;28;20036;-75
2022/03/16 02:15:46;;;;;;;53.13;23.17;;;;;;;6.79;100.00;96077.13;5055501;28;20419;-75
2022/03/16 02:18:12;;;;;;;51.78;23.63;;;;;;;6.92;100.00;96070.84;5049535;28;20045;-75
2022/03/16 02:20:38;;;;;;;57.17;24.00;;;;;;;6.82;100.00;96076.66;5049223;28;20037;-75
2022/03/16 02:23:07;;;;;;;56.35;25.60;;;;;;;6.80;100.00;96077.94;5051606;28;20041;-75
2022/03/16 02:25:34;;;;;;;58.45;25.00;;;;;;;6.74;100.00;96080.44;5058169;28;20041;-74
2022/03/16 02:28:00;;;;;;;55.25;26.50;;;;;;;6.76;100.00;96083.63;5048980;28;20526;-74
2022/03/16 02:30:29;;;;;;;61.10;26.80;;;;;;;6.82;100.00;96075.88;5048417;28;20509;-75
2022/03/16 02:32:54;;;;;;;52.70;24.83;;;;;;;6.88;100.00;96075.78;5055668;28;20116;-74
2022/03/16 02:35:21;;;;;;;57.10;25.55;;;;;;;6.81;100.00;96075.09;5059969;28;20094;-75
2022/03/16 02:37:47;;;;;;;55.20;25.58;;;;;;;6.78;100.00;96080.00;5067277;28;20131;-75
2022/03/16 02:40:18;;;;;;;58.85;26.38;;;;;;;6.76;100.00;96073.16;5051223;28;20044;-75
2022/03/16 02:42:43;;;;;;;53.38;25.33;;;;;;;6.80;100.00;96075.34;5047961;28;20446;-75
2022/03/16 02:45:09;;;;;;;59.70;26.45;;;;;;;6.71;100.00;96088.75;5062715;28;20053;-75
2022/03/16 02:47:37;;;;;;;57.20;26.75;;;;;;;6.71;100.00;96086.16;5052713;28;20036;-75
2022/03/16 02:50:03;;;;;;;62.65;26.60;;;;;;;6.73;100.00;96084.09;5052405;28;20045;-75
2022/03/16 02:52:29;;;;;;;57.72;27.52;;;;;;;6.73;100.00;96094.53;5048404;28;20556;-75
2022/03/16 02:54:54;;;;;;;66.50;26.83;;;;;;;6.75;100.00;96092.50;5063373;28;20045;-75
2022/03/16 02:57:20;;;;;;;65.20;26.65;;;;;;;6.73;100.00;96094.53;5065691;28;20036;-75
2022/03/16 02:59:45;;;;;;;64.63;27.45;;;;;;;6.67;100.00;96098.09;5049139;28;20041;-75
2022/03/16 03:02:11;;;;;;;62.00;26.88;;;;;;;6.69;100.00;96098.66;5047929;28;20470;-75
2022/03/16 03:04:37;;;;;;;66.47;28.15;;;;;;;6.66;100.00;96099.09;5057823;28;20052;-75
2022/03/16 03:07:05;;;;;;;67.50;27.00;;;;;;;6.60;100.00;96092.19;5062186;28;20040;-75
2022/03/16 03:09:31;;;;;;;68.28;28.27;;;;;;;6.58;100.00;96096.88;5049252;28;20418;-75
2022/03/16 03:11:59;;;;;;;64.07;26.67;;;;;;;6.62;100.00;96102.41;5053937;28;20037;-75
2022/03/16 03:14:26;;;;;;;62.17;26.60;;;;;;;6.63;100.00;96099.56;5065300;28;20040;-75
2022/03/16 03:16:51;;;;;;;72.25;29.55;;;;;;;6.63;100.00;96104.81;5067209;28;20036;-75
2022/03/16 03:19:17;;;;;;;71.68;28.98;;;;;;;6.63;100.00;96104.00;5049100;28;20044;-75
2022/03/16 03:21:42;;;;;;;74.80;29.52;;;;;;;6.72;100.00;96113.91;5048536;28;20071;-75
2022/03/16 03:24:08;;;;;;;69.97;28.42;;;;;;;6.60;100.00;96100.03;5064946;28;20036;-75
2022/03/16 03:26:34;;;;;;;72.05;30.58;;;;;;;6.48;100.00;96112.31;5050850;28;20045;-75
2022/03/16 03:29:00;;;;;;;73.13;29.63;;;;;;;6.45;100.00;96112.78;5055795;28;20040;-75
2022/03/16 03:31:25;;;;;;;79.80;29.92;;;;;;;6.41;100.00;96115.06;5053673;28;20059;-75
2022/03/16 03:33:51;;;;;;;70.03;28.33;;;;;;;6.28;100.00;96118.69;5058472;28;20037;-75
2022/03/16 03:36:17;;;;;;;72.85;28.60;;;;;;;6.30;100.00;96121.84;5066774;28;20048;-75
2022/03/16 03:38:42;;;;;;;75.57;27.67;;;;;;;6.27;100.00;96122.31;5067657;28;20055;-75
2022/03/16 03:41:08;;;;;;;76.47;27.95;;;;;;;6.28;100.00;96123.09;5058493;28;20546;-75
2022/03/16 03:43:33;;;;;;;77.55;28.92;;;;;;;6.21;100.00;96128.47;5060763;28;20037;-75
2022/03/16 03:45:59;;;;;;;82.82;28.50;;;;;;;6.31;100.00;96126.06;5065415;28;20037;-75
2022/03/16 03:48:25;;;;;;;78.85;29.23;;;;;;;6.30;100.00;96127.09;5064488;28;20040;-75
2022/03/16 03:50:50;;;;;;;72.63;27.80;;;;;;;6.29;100.00;96133.31;5052431;28;20041;-75
2022/03/16 03:53:16;;;;;;;79.38;28.52;;;;;;;6.24;100.00;96128.00;5053668;28;20120;-75
2022/03/16 03:55:42;;;;;;;77.45;29.35;;;;;;;6.23;100.00;96136.84;5057142;28;20033;-75
2022/03/16 03:58:07;;;;;;;85.50;28.20;;;;;;;6.25;100.00;96134.81;5052262;28;20090;-75
2022/03/16 04:00:33;;;;;;;75.43;27.65;;;;;;;6.13;100.00;96136.63;5052466;28;20041;-75
2022/03/16 04:02:58;;;;;;;73.32;27.23;;;;;;;6.13;100.00;96141.84;5053664;28;20045;-75
2022/03/16 04:05:24;;;;;;;78.30;28.48;;;;;;;6.21;100.00;96144.13;5057846;28;20536;-75
2022/03/16 04:07:49;;;;;;;75.00;28.67;;;;;;;6.12;100.00;96142.84;5072456;28;20044;-75
2022/03/16 04:10:16;;;;;;;76.93;29.60;;;;;;;6.11;100.00;96143.91;5059383;28;20044;-75
2022/03/16 04:12:42;;;;;;;80.70;30.17;;;;;;;6.04;100.00;96160.47;5062402;28;20105;-75
2022/03/16 04:15:08;;;;;;;77.80;28.85;;;;;;;5.94;100.00;96157.56;5065831;28;21838;-75
2022/03/16 04:17:34;;;;;;;72.90;29.50;;;;;;;5.93;100.00;96163.81;5070327;28;20048;-75
2022/03/16 04:19:59;;;;;;;72.80;27.45;;;;;;;5.95;100.00;96161.78;5068953;28;20032;-76
2022/03/16 04:22:26;;;;;;;62.63;24.50;;;;;;;5.97;100.00;96175.44;5062054;28;20490;-75
2022/03/16 04:24:52;;;;;;;65.22;25.65;;;;;;;5.89;100.00;96175.75;5068040;28;20115;-75
2022/03/16 04:27:18;;;;;;;60.58;24.90;;;;;;;5.79;100.00;96175.47;5072306;28;20041;-75
2022/03/16 04:29:43;;;;;;;68.18;25.15;;;;;;;5.80;100.00;96175.22;5061992;28;20045;-75
2022/03/16 04:32:09;;;;;;;58.78;23.65;;;;;;;5.78;100.00;96186.94;5064525;28;20045;-75
2022/03/16 04:34:34;;;;;;;62.83;23.67;;;;;;;5.68;100.00;96188.25;5067348;28;20072;-75
2022/03/16 04:37:00;;;;;;;65.63;23.65;;;;;;;5.69;100.00;96189.84;5063648;28;20047;-74
2022/03/16 04:39:25;;;;;;;54.63;22.77;;;;;;;5.54;100.00;96186.84;5056688;28;20067;-74
2022/03/16 04:41:51;;;;;;;55.35;21.92;;;;;;;5.48;100.00;96198.94;5063527;28;20045;-75
2022/03/16 04:44:16;;;;;;;56.38;23.17;;;;;;;5.37;100.00;96187.44;5051248;28;20129;-75
2022/03/16 04:46:42;;;;;;;62.50;24.13;;;;;;;5.41;100.00;96192.22;5052191;28;20037;-74
2022/03/16 04:49:08;;;;;;;63.10;22.90;;;;;;;5.38;100.00;96188.25;5050574;28;20037;-74
2022/03/16 04:51:33;;;;;;;63.28;23.65;;;;;;;5.31;100.00;96193.53;5058121;28;20147;-75
2022/03/16 04:53:59;;;;;;;60.33;22.63;;;;;;;5.28;100.00;96193.97;5070384;28;20115;-75
2022/03/16 04:56:25;;;;;;;59.13;22.35;;;;;;;5.18;100.00;96204.13;5051566;28;20087;-75
2022/03/16 04:58:50;;;;;;;57.28;22.40;;;;;;;5.11;100.00;96206.00;5052765;28;20060;-75
2022/03/16 05:01:16;;;;;;;60.67;22.60;;;;;;;5.14;100.00;96208.19;5050525;28;20047;-75
2022/03/16 05:03:41;;;;;;;61.78;22.80;;;;;;;5.15;100.00;96209.78;5064272;28;20047;-75
2022/03/16 05:06:07;;;;;;;62.72;23.00;;;;;;;5.13;100.00;96217.00;5061401;28;20040;-75
2022/03/16 05:08:35;;;;;;;62.13;23.65;;;;;;;5.14;100.00;96218.63;5050364;28;20167;-75
2022/03/16 05:11:02;;;;;;;64.60;24.08;;;;;;;5.00;100.00;96226.59;5050796;28;20110;-75
2022/03/16 05:13:28;;;;;;;69.80;24.45;;;;;;;5.06;100.00;96231.94;5054482;28;20662;-75
2022/03/16 05:15:54;;;;;;;70.32;25.33;;;;;;;4.98;100.00;96231.19;5050965;28;20521;-75
2022/03/16 05:18:19;;;;;;;72.47;26.40;;;;;;;4.99;100.00;96232.00;5051210;28;20041;-75
2022/03/16 05:20:45;;;;;;;77.40;27.08;;;;;;;4.93;100.00;96233.69;5051378;28;20052;-75
2022/03/16 05:23:11;;;;;;;86.68;30.05;;;;;;;4.89;100.00;96248.16;5057979;28;20075;-75
2022/03/16 05:25:36;;;;;;;80.28;29.80;;;;;;;4.68;100.00;96252.75;5068708;28;20044;-74
2022/03/16 05:28:02;;;;;;;92.07;30.23;;;;;;;4.66;100.00;96244.34;5052820;28;20076;-74
2022/03/16 05:30:28;;;;;;;88.75;29.45;;;;;;;4.59;100.00;96259.22;5049926;28;20049;-75
2022/03/16 05:32:56;;;;;;;83.68;29.65;;;;;;;4.70;100.00;96268.19;5060393;28;20041;-75
2022/03/16 05:35:22;;;;;;;95.35;31.70;;;;;;;4.48;100.00;96267.72;5059420;28;20045;-75
2022/03/16 05:37:47;;;;;;;82.63;28.83;;;;;;;4.55;100.00;96276.31;5050966;28;20713;-75
2022/03/16 05:40:13;;;;;;;71.90;28.17;;;;;;;4.47;100.00;96277.38;5049757;28;20497;-75
2022/03/16 05:42:39;;;;;;;76.75;26.85;;;;;;;4.42;100.00;96279.00;5050529;28;20045;-75
2022/03/16 05:45:06;;;;;;;72.35;28.40;;;;;;;4.24;100.00;96272.72;5060200;28;20551;-74
2022/03/16 05:47:32;;;;;;;83.22;28.80;;;;;;;4.15;100.00;96279.16;5061315;28;20045;-74
2022/03/16 05:49:58;;;;;;;91.53;30.80;;;;;;;4.14;100.00;96288.00;5065294;28;20520;-74
2022/03/16 05:52:25;;;;;;;84.68;29.40;;;;;;;4.11;100.00;96284.00;5050709;28;20049;-74
2022/03/16 05:54:52;;;;;;;90.43;29.75;;;;;;;4.19;100.00;96284.78;5062863;28;20598;-75
2022/03/16 05:57:18;;;;;;;88.43;29.33;;;;;;;4.21;100.00;96283.56;5050545;28;20037;-75
2022/03/16 05:59:45;;;;;;;88.97;29.30;;;;;;;4.12;100.00;96290.00;5068537;28;20036;-75
2022/03/16 06:02:11;;;;;;;84.10;31.08;;;;;;;3.99;100.00;96291.69;5054734;28;20037;-75
2022/03/16 06:04:38;;;;;;;89.80;31.48;;;;;;;4.00;100.00;96292.47;5049505;28;20041;-75
2022/03/16 06:07:05;;;;;;;96.38;30.77;;;;;;;4.06;100.00;96290.84;5061149;28;20111;-74
2022/03/16 06:09:31;;;;;;;88.30;30.23;;;;;;;4.06;100.00;96290.84;5069064;28;20086;-75
2022/03/16 06:11:57;;;;;;;96.63;31.92;;;;;;;4.10;100.00;96294.63;5059880;28;20049;-75
2022/03/16 06:14:23;;;;;;;92.28;30.23;;;;;;;4.08;100.00;96294.03;5057146;28;20097;-75
2022/03/16 06:16:48;;;;;;;95.85;30.98;;;;;;;4.06;100.00;96296.84;5067938;28;20501;-75
2022/03/16 06:19:14;;;;;;;92.38;31.05;;;;;;;4.03;100.00;96301.69;5060288;28;20032;-75
2022/03/16 06:21:40;;;;;;;99.90;31.00;;;;;;;4.05;100.00;96299.66;5066961;28;20041;-75
2022/03/16 06:24:06;;;;;;;91.80;29.90;;;;;;;3.99;100.00;96304.72;5058694;28;20055;-75
2022/03/16 06:26:32;;;;;;;93.05;30.08;;;;;;;4.31;100.00;96315.16;5063469;28;20131;-75
2022/03/16 06:28:58;;;;;;;103.70;32.15;;;;;;;4.34;100.00;96314.75;5069164;28;20045;-75
2022/03/16 06:31:23;;;;;;;95.70;31.17;;;;;;;4.17;100.00;96313.63;5066293;28;20091;-75
2022/03/16 06:33:49;;;;;;;87.43;30.63;;;;;;;4.25;100.00;96318.59;5057916;28;20048;-75
2022/03/16 06:36:15;;;;;;;107.43;31.02;;;;;;;4.40;100.00;96312.31;5066313;28;20037;-75
2022/03/16 06:38:40;;;;;;;77.05;28.38;;;;;;;4.38;100.00;96309.09;5066850;28;20044;-75
2022/03/16 06:41:06;;;;;;;82.50;28.98;;;;;;;4.32;100.00;96316.75;5067027;28;20153;-75
2022/03/16 06:43:32;;;;;;;88.43;31.50;;;;;;;4.36;100.00;96321.56;5060790;28;20048;-75
2022/03/16 06:45:57;;;;;;;84.28;29.67;;;;;;;4.45;100.00;96326.31;5054262;28;20063;-74
2022/03/16 06:48:23;;;;;;;80.18;29.08;;;;;;;4.42;100.00;96316.28;5056365;28;20068;-74
2022/03/16 06:50:50;;;;;;;81.57;29.50;;;;;;;4.45;100.00;96325.50;5049931;28;20037;-75
2022/03/16 06:53:16;;;;;;;86.60;29.85;;;;;;;4.40;100.00;96327.94;5062673;28;20044;-75
2022/03/16 06:55:41;;;;;;;79.85;29.23;;;;;;;4.25;100.00;96334.25;5054861;28;20041;-76
2022/03/16 06:58:07;;;;;;;86.45;29.15;;;;;;;4.27;100.00;96337.44;5062795;28;20405;-71
2022/03/16 07:00:33;;;;;;;86.45;28.92;;;;;;;4.38;100.00;96337.78;5056706;28;20053;-71
2022/03/16 07:03:03;;;;;;;85.03;29.80;;;;;;;4.25;100.00;96344.66;5048749;28;20045;-73
2022/03/16 07:05:31;;;;;;;75.97;28.15;;;;;;;4.21;100.00;96343.47;5063952;28;20596;-73
2022/03/16 07:07:58;;;;;;;77.03;27.85;;;;;;;4.13;100.00;96348.91;5065973;28;20445;-73
2022/03/16 07:10:24;;;;;;;78.25;28.40;;;;;;;4.16;100.00;96338.88;5057727;28;20048;-72
2022/03/16 07:12:49;;;;;;;84.57;29.48;;;;;;;4.13;100.00;96344.50;5063074;28;20609;-72
2022/03/16 07:15:15;;;;;;;83.43;30.75;;;;;;;4.22;100.00;96352.88;5056032;28;20037;-72
2022/03/16 07:17:41;;;;;;;82.97;29.55;;;;;;;4.14;100.00;96355.75;5051901;28;20037;-72
2022/03/16 07:20:07;;;;;;;84.18;28.90;;;;;;;4.13;100.00;96346.31;5060959;28;20139;-72
2022/03/16 07:22:34;;;;;;;83.55;29.02;;;;;;;4.16;100.00;96349.28;5056155;28;20616;-72
2022/03/16 07:25:03;;;;;;;85.20;28.55;;;;;;;4.40;100.00;96349.59;5050888;28;20041;-72
2022/03/16 07:27:29;;;;;;;81.35;29.35;;;;;;;4.36;100.00;96347.63;5049640;28;20032;-72
2022/03/16 07:29:54;;;;;;;83.63;30.77;;;;;;;4.41;100.00;96360.81;5053721;28;20478;-71
2022/03/16 07:32:19;;;;;;;92.75;30.85;;;;;;;4.27;100.00;96353.06;5054679;28;20037;-74
2022/03/16 07:34:46;;;;;;;81.78;29.88;;;;;;;4.27;100.00;96350.47;5058592;28;20052;-73
2022/03/16 07:37:12;;;;;;;85.35;32.05;;;;;;;4.24;100.00;96356.09;5067967;28;20047;-73
2022/03/16 07:39:38;;;;;;;93.90;33.22;;;;;;;4.23;100.00;96349.28;5064538;28;20090;-72
2022/03/16 07:42:04;;;;;;;83.90;30.80;;;;;;;4.20;100.00;96354.13;5067664;28;20072;-73
2022/03/16 07:44:29;;;;;;;89.80;32.28;;;;;;;4.27;100.00;96358.28;5056630;28;20041;-72
2022/03/16 07:46:55;;;;;;;83.32;30.88;;;;;;;4.31;100.00;96359.47;5063114;28;20032;-74
2022/03/16 07:49:20;;;;;;;83.22;30.58;;;;;;;4.29;100.00;96361.47;5068193;28;20444;-73
2022/03/16 07:51:46;;;;;;;82.07;30.80;;;;;;;4.24;100.00;96365.69;5064777;28;20037;-74
2022/03/16 07:54:11;;;;;;;89.20;29.48;;;;;;;4.24;100.00;96356.09;5066698;28;20037;-74
2022/03/16 07:56:37;;;;;;;73.57;27.75;;;;;;;4.20;100.00;96360.13;5050990;28;20052;-74
2022/03/16 07:59:03;;;;;;;76.70;28.25;;;;;;;4.38;100.00;96366.44;5053610;28;20041;-75
2022/03/16 08:01:29;;;;;;;77.25;29.92;;;;;;;4.37;100.00;96367.44;5058670;28;20040;-74
2022/03/16 08:03:55;;;;;;;83.30;30.05;;;;;;;4.29;100.00;96374.47;5059624;28;20053;-74
2022/03/16 08:06:20;;;;;;;72.82;27.25;;;;;;;4.27;100.00;96371.31;5050126;28;20034;-74
2022/03/16 08:08:46;;;;;;;74.53;29.90;;;;;;;4.26;100.00;96374.91;5048142;28;20041;-74
2022/03/16 08:11:12;;;;;;;74.50;28.50;;;;;;;4.23;100.00;96367.50;5061080;28;20052;-75
2022/03/16 08:13:38;;;;;;;72.35;28.23;;;;;;;4.21;100.00;96361.72;5059052;28;20045;-76
2022/03/16 08:16:04;;;;;;;78.90;29.85;;;;;;;4.27;100.00;96360.88;5056987;28;20498;-76
2022/03/16 08:18:29;;;;;;;76.97;29.58;;;;;;;4.31;100.00;96372.50;5050339;28;20068;-75
2022/03/16 08:20:56;;;;;;;74.60;28.95;;;;;;;4.31;100.00;96362.06;5052980;28;20424;-75
2022/03/16 08:23:22;;;;;;;71.55;27.67;;;;;;;4.31;100.00;96362.06;5048622;28;20047;-73
2022/03/16 08:25:48;;;;;;;76.55;29.95;;;;;;;4.33;100.00;96365.25;5054963;28;20619;-81
2022/03/16 08:28:14;;;;;;;78.60;28.67;;;;;;;4.39;100.00;96362.81;5064795;28;20124;-76
2022/03/16 08:30:41;;;;;;;78.28;30.23;;;;;;;4.33;100.00;96367.84;5062981;28;20040;-76
2022/03/16 08:33:07;;;;;;;78.75;29.05;;;;;;;4.29;100.00;96374.47;5061294;28;20044;-76
2022/03/16 08:35:33;;;;;;;73.60;29.35;;;;;;;4.49;100.00;96374.38;5054944;28;20039;-76
2022/03/16 08:37:59;;;;;;;74.35;29.10;;;;;;;4.51;100.00;96371.56;5061069;28;20037;-76
2022/03/16 08:40:24;;;;;;;70.88;29.27;;;;;;;4.73;100.00;96384.31;5072631;28;20166;-77
2022/03/16 08:42:52;;;;;;;75.68;28.13;;;;;;;4.73;100.00;96381.69;5060158;28;20387;-76
2022/03/16 08:45:20;;;;;;;78.28;29.35;;;;;;;4.61;100.00;96384.16;5063179;28;20052;-76
2022/03/16 08:47:46;;;;;;;74.45;28.25;;;;;;;4.67;100.00;96381.50;5064275;28;20052;-77
2022/03/16 08:50:12;;;;;;;70.35;27.98;;;;;;;4.79;100.00;96378.25;5056182;28;20048;-77
2022/03/16 08:52:38;;;;;;;65.82;25.80;;;;;;;4.83;100.00;96382.03;5067202;28;20043;-78
2022/03/16 08:55:05;;;;;;;63.38;27.05;;;;;;;4.80;100.00;96379.84;5063738;28;20041;-75
2022/03/16 08:57:32;;;;;;;69.90;27.08;;;;;;;4.61;100.00;96387.56;5051352;28;20037;-75
2022/03/16 08:59:57;;;;;;;65.32;26.85;;;;;;;4.92;100.00;96383.34;5056931;28;20044;-74
2022/03/16 09:02:23;;;;;;;70.78;27.42;;;;;;;4.88;100.00;96390.00;5056544;28;20048;-75
2022/03/16 09:04:50;;;;;;;67.50;28.05;;;;;;;4.88;100.00;96387.41;5065154;28;20047;-75
2022/03/16 09:07:16;;;;;;;64.93;26.92;;;;;;;4.92;100.00;96393.78;5062392;28;20036;-74
2022/03/16 09:09:42;;;;;;;66.28;26.48;;;;;;;4.86;100.00;96399.84;5063464;28;20086;-76
2022/03/16 09:12:09;;;;;;;67.22;27.55;;;;;;;4.83;100.00;96397.69;5056492;28;20041;-76
2022/03/16 09:14:35;;;;;;;67.28;26.60;;;;;;;4.67;100.00;96397.16;5052460;28;20044;-78
2022/03/16 09:17:01;;;;;;;68.90;28.13;;;;;;;4.43;100.00;96390.06;5055815;28;20498;-76
2022/03/16 09:19:26;;;;;;;68.68;27.90;;;;;;;4.66;100.00;96390.34;5069422;28;20047;-76
2022/03/16 09:21:52;;;;;;;68.57;28.73;;;;;;;4.57;100.00;96386.41;5061815;28;20063;-73
2022/03/16 09:24:18;;;;;;;68.95;27.52;;;;;;;4.64;100.00;96387.16;5056157;28;21444;-74
2022/03/16 09:26:45;;;;;;;63.22;26.95;;;;;;;4.87;100.00;96383.22;5061280;28;20041;-74
2022/03/16 09:29:11;;;;;;;69.75;28.35;;;;;;;5.00;100.00;96375.28;5052326;28;20044;-74
2022/03/16 09:31:39;;;;;;;74.40;28.77;;;;;;;4.82;100.00;96383.03;5065756;28;20045;-72
2022/03/16 09:34:07;;;;;;;73.22;27.95;;;;;;;5.00;100.00;96375.28;5053824;28;20032;-73
2022/03/16 09:36:37;;;;;;;71.15;27.38;;;;;;;4.82;100.00;96377.81;5064991;28;20092;-74
2022/03/16 09:39:04;;;;;;;70.03;27.20;;;;;;;4.93;100.00;96379.75;5065956;28;20498;-73
2022/03/16 09:41:29;;;;;;;69.63;26.85;;;;;;;5.05;100.00;96381.66;5052994;28;20048;-73
2022/03/16 09:43:55;;;;;;;67.68;26.98;;;;;;;4.90;100.00;96379.34;5058555;28;20045;-73
2022/03/16 09:46:24;;;;;;;67.97;27.50;;;;;;;5.07;100.00;96390.06;5054546;28;20032;-73
2022/03/16 09:48:50;;;;;;;64.40;27.23;;;;;;;5.27;100.00;96393.34;5067843;28;20064;-73
2022/03/16 09:51:17;;;;;;;68.88;28.60;;;;;;;5.01;100.00;96386.50;5065435;28;20406;-73
2022/03/16 09:53:42;;;;;;;69.32;26.58;;;;;;;4.92;100.00;96388.56;5049838;28;20521;-73
2022/03/16 09:56:09;;;;;;;65.70;27.38;;;;;;;4.96;100.00;96387.16;5063667;28;20036;-73
2022/03/16 09:58:35;;;;;;;65.82;27.17;;;;;;;5.00;100.00;96385.72;5061690;28;20115;-72
2022/03/16 10:01:05;;;;;;;62.90;24.63;;;;;;;4.99;100.00;96381.50;5053175;28;20560;-74
2022/03/16 10:03:31;;;;;;;65.45;27.42;;;;;;;5.01;100.00;96370.84;5050767;28;20053;-74
2022/03/16 10:06:00;;;;;;;70.30;28.42;;;;;;;4.96;100.00;96376.72;5064016;28;20040;-74
2022/03/16 10:08:30;;;;;;;71.13;27.70;;;;;;;5.24;100.00;96367.66;5062966;28;20098;-74
2022/03/16 10:14:05;;;;;;;64.47;26.05;;;;;;;5.25;100.00;96356.22;5060144;28;20032;-73
2022/03/16 10:17:43;;;;;;;61.78;25.27;;;;;;;5.36;100.00;96368.56;5062023;28;20225;-73
2022/03/16 10:19:20;;;;;;;61.30;26.08;;;;;;;5.28;100.00;96366.22;5065816;28;20072;-73
2022/03/16 10:21:59;;;;;;;60.45;24.90;;;;;;;5.53;100.00;96358.38;5067152;28;20566;-74
2022/03/16 10:24:33;;;;;;;58.50;24.30;;;;;;;5.68;100.00;96360.63;5066418;28;20048;-73
2022/03/16 10:26:59;;;;;;;59.50;24.77;;;;;;;5.67;100.00;96364.22;5063386;28;20064;-73
2022/03/16 10:29:26;;;;;;;59.15;25.20;;;;;;;5.70;100.00;96374.28;5057092;28;20456;-73
2022/03/16 10:32:03;;;;;;;60.63;25.08;;;;;;;5.61;100.00;96359.88;5058123;28;20052;-73
2022/03/16 10:34:30;;;;;;;59.92;25.50;;;;;;;5.40;100.00;96362.91;5055941;28;20033;-74
2022/03/16 10:36:59;;;;;;;63.55;26.70;;;;;;;5.41;100.00;96365.28;5056115;28;20041;-74
2022/03/16 10:39:37;;;;;;;67.05;26.00;;;;;;;5.80;100.00;96367.72;5052704;28;20136;-73
2022/03/16 10:48:30;;;;;;;64.47;26.42;;;;;;;5.48;100.00;96370.47;5059780;28;20045;-76
2022/03/16 10:51:02;;;;;;;62.85;26.85;;;;;;;5.71;100.00;96370.63;5056799;28;20049;-73
2022/03/16 10:53:31;;;;;;;69.10;27.67;;;;;;;5.65;100.00;96361.06;5062054;28;20063;-73
2022/03/16 10:56:01;;;;;;;67.20;28.27;;;;;;;5.70;100.00;96353.38;5058443;28;21238;-73
2022/03/16 10:58:28;;;;;;;67.85;27.25;;;;;;;5.77;100.00;96352.50;5048652;28;20041;-72
2022/03/16 11:00:56;;;;;;;74.38;28.30;;;;;;;5.55;100.00;96347.69;5056628;28;21989;-73
2022/03/16 11:03:25;;;;;;;73.72;28.10;;;;;;;5.45;100.00;96342.19;5062377;28;20040;-72
2022/03/16 11:05:51;;;;;;;65.65;26.40;;;;;;;5.29;100.00;96346.16;5049842;28;20116;-72
2022/03/16 11:08:20;;;;;;;69.88;29.17;;;;;;;5.41;100.00;96349.63;5066074;28;20051;-73
2022/03/16 11:10:46;;;;;;;79.68;28.13;;;;;;;5.60;100.00;96342.63;5067475;28;20554;-73
2022/03/16 11:13:32;;;;;;;75.00;28.55;;;;;;;5.57;100.00;96340.44;5060247;28;20123;-72
2022/03/16 11:16:00;;;;;;;78.50;29.80;;;;;;;5.70;100.00;96353.38;5068404;28;20040;-72
2022/03/16 11:18:26;;;;;;;72.15;28.67;;;;;;;5.73;100.00;96347.72;5059013;28;20037;-72
2022/03/16 11:21:13;;;;;;;69.53;27.48;;;;;;;5.83;100.00;96346.41;5057041;28;20051;-69
2022/03/16 11:27:00;;;;;;;74.35;28.27;;;;;;;5.81;100.00;96343.22;5048764;28;20453;-72